createdAt,value
2022-07-30T00:01:35.718Z,24.60
2022-07-30T00:04:02.834Z,24.50
2022-07-30T00:06:29.401Z,24.30
2022-07-30T00:08:55.888Z,24.60
2022-07-30T00:13:54.060Z,24.70
2022-07-30T00:18:47.563Z,24.60
2022-07-30T00:21:30.319Z,24.60
2022-07-30T00:24:01.683Z,24.50
2022-07-30T00:28:55.654Z,24.60
2022-07-30T00:31:22.078Z,24.80
2022-07-30T00:33:48.528Z,24.50
2022-07-30T00:36:15.000Z,24.50
2022-07-30T00:41:08.444Z,24.70
2022-07-30T00:43:34.911Z,24.30
2022-07-30T00:48:28.418Z,24.70
2022-07-30T00:50:54.877Z,24.00
2022-07-30T00:53:21.345Z,25.10
2022-07-30T00:55:47.791Z,24.80
2022-07-30T00:58:14.256Z,25.00
2022-07-30T01:00:40.707Z,24.70
2022-07-30T01:03:07.159Z,24.70
2022-07-30T01:05:33.618Z,24.50
2022-07-30T01:08:00.049Z,23.80
2022-07-30T01:10:26.548Z,24.70
2022-07-30T01:12:52.994Z,24.40
2022-07-30T01:15:19.451Z,24.40
2022-07-30T01:17:45.903Z,24.80
2022-07-30T01:22:46.141Z,24.30
2022-07-30T01:25:12.585Z,24.80
2022-07-30T01:27:39.051Z,24.70
2022-07-30T01:30:05.479Z,24.90
2022-07-30T01:32:31.926Z,24.10
2022-07-30T01:34:58.366Z,24.00
2022-07-30T01:37:24.837Z,24.70
2022-07-30T01:39:51.276Z,24.40
2022-07-30T01:44:44.718Z,23.70
2022-07-30T01:49:38.184Z,24.40
2022-07-30T01:52:04.633Z,24.60
2022-07-30T01:54:31.094Z,24.50
2022-07-30T01:56:57.926Z,24.90
2022-07-30T01:59:24.590Z,24.40
2022-07-30T02:01:51.040Z,24.40
2022-07-30T02:04:17.503Z,24.50
2022-07-30T02:06:44.031Z,24.80
2022-07-30T02:09:11.225Z,23.70
2022-07-30T02:11:37.997Z,24.80
2022-07-30T02:14:04.437Z,24.40
2022-07-30T02:16:30.967Z,23.70
2022-07-30T02:18:58.622Z,24.50
2022-07-30T02:21:25.729Z,24.70
2022-07-30T02:24:03.224Z,24.40
2022-07-30T02:28:56.674Z,24.60
2022-07-30T02:31:23.153Z,24.70
2022-07-30T02:33:49.652Z,24.60
2022-07-30T02:38:43.115Z,24.60
2022-07-30T02:41:10.485Z,24.90
2022-07-30T02:43:37.032Z,23.60
2022-07-30T02:46:03.474Z,24.60
2022-07-30T02:48:35.041Z,24.60
2022-07-30T02:51:01.912Z,24.80
2022-07-30T02:55:55.348Z,24.20
2022-07-30T02:58:21.788Z,23.50
2022-07-30T03:00:48.298Z,23.60
2022-07-30T03:05:41.761Z,24.80
2022-07-30T03:08:08.201Z,24.70
2022-07-30T03:10:34.657Z,23.50
2022-07-30T03:13:01.101Z,24.50
2022-07-30T03:15:27.550Z,24.30
2022-07-30T03:17:54.007Z,23.80
2022-07-30T03:20:22.164Z,24.30
2022-07-30T03:22:48.634Z,24.70
2022-07-30T03:25:15.086Z,23.70
2022-07-30T03:27:41.558Z,24.10
2022-07-30T03:30:07.999Z,23.60
2022-07-30T03:32:34.436Z,25.10
2022-07-30T03:35:06.124Z,23.90
2022-07-30T03:37:33.174Z,24.10
2022-07-30T03:39:59.642Z,24.80
2022-07-30T03:42:26.077Z,24.50
2022-07-30T03:47:19.506Z,23.60
2022-07-30T03:49:45.956Z,24.70
2022-07-30T03:52:12.404Z,24.50
2022-07-30T03:57:05.886Z,24.50
2022-07-30T03:59:32.340Z,24.70
2022-07-30T04:01:58.892Z,24.50
2022-07-30T04:04:33.967Z,23.80
2022-07-30T04:09:27.841Z,24.30
2022-07-30T04:11:54.310Z,24.60
2022-07-30T04:14:20.750Z,24.50
2022-07-30T04:16:47.275Z,24.40
2022-07-30T04:21:40.732Z,23.80
2022-07-30T04:24:07.199Z,24.10
2022-07-30T04:26:33.644Z,24.30
2022-07-30T04:29:00.095Z,24.70
2022-07-30T04:31:26.607Z,24.70
2022-07-30T04:33:53.098Z,24.30
2022-07-30T04:36:19.538Z,25.00
2022-07-30T04:38:45.978Z,24.60
2022-07-30T04:41:12.424Z,23.40
2022-07-30T04:43:38.848Z,23.30
2022-07-30T04:48:32.286Z,24.60
2022-07-30T04:50:58.732Z,24.20
2022-07-30T04:53:25.174Z,23.80
2022-07-30T04:55:51.640Z,23.40
2022-07-30T04:58:19.982Z,22.70
2022-07-30T05:00:46.459Z,22.70
2022-07-30T05:03:12.908Z,22.50
2022-07-30T05:05:39.427Z,22.80
2022-07-30T05:08:05.896Z,22.50
2022-07-30T05:10:32.349Z,22.30
2022-07-30T05:12:58.821Z,22.60
2022-07-30T05:15:36.936Z,22.50
2022-07-30T05:18:03.898Z,22.40
2022-07-30T05:20:30.342Z,22.40
2022-07-30T05:22:57.738Z,22.60
2022-07-30T05:25:24.179Z,22.90
2022-07-30T05:32:44.613Z,22.60
2022-07-30T05:35:13.481Z,22.40
2022-07-30T05:37:39.934Z,22.00
2022-07-30T05:40:06.398Z,22.50
2022-07-30T05:42:32.844Z,22.30
2022-07-30T05:44:59.319Z,22.60
2022-07-30T05:47:25.776Z,21.50
2022-07-30T05:49:52.212Z,22.20
2022-07-30T05:52:18.671Z,22.30
2022-07-30T05:54:45.120Z,22.30
2022-07-30T05:57:11.617Z,21.90
2022-07-30T05:59:38.118Z,22.10
2022-07-30T06:02:04.599Z,22.30
2022-07-30T06:04:31.136Z,22.30
2022-07-30T06:06:57.750Z,22.20
2022-07-30T06:09:32.940Z,22.30
2022-07-30T06:12:03.719Z,22.40
2022-07-30T06:16:57.320Z,22.50
2022-07-30T06:19:23.998Z,22.70
2022-07-30T06:22:06.320Z,22.60
2022-07-30T06:24:33.722Z,22.60
2022-07-30T06:27:00.516Z,22.50
2022-07-30T06:29:27.192Z,22.20
2022-07-30T06:31:53.638Z,22.20
2022-07-30T06:34:20.080Z,22.30
2022-07-30T06:36:46.554Z,22.80
2022-07-30T06:39:13.043Z,22.00
2022-07-30T06:44:06.477Z,22.20
2022-07-30T06:46:32.983Z,22.30
2022-07-30T06:48:59.534Z,21.90
2022-07-30T06:51:26.418Z,22.30
2022-07-30T06:53:52.873Z,22.20
2022-07-30T06:56:19.346Z,22.40
2022-07-30T06:58:45.828Z,22.70
2022-07-30T07:01:12.329Z,22.30
2022-07-30T07:03:40.153Z,22.80
2022-07-30T07:06:07.120Z,22.30
2022-07-30T07:08:33.658Z,22.40
2022-07-30T07:11:00.115Z,22.30
2022-07-30T07:13:26.560Z,22.60
2022-07-30T07:15:53.021Z,22.50
2022-07-30T07:18:19.481Z,23.70
2022-07-30T07:20:45.926Z,22.40
2022-07-30T07:23:12.682Z,22.80
2022-07-30T07:25:40.293Z,22.90
2022-07-30T07:28:10.841Z,22.90
2022-07-30T07:30:39.815Z,23.90
2022-07-30T07:33:06.291Z,22.90
2022-07-30T07:35:32.731Z,22.70
2022-07-30T07:38:15.046Z,23.30
2022-07-30T07:40:41.499Z,23.30
2022-07-30T07:43:07.951Z,23.70
2022-07-30T07:45:34.401Z,23.90
2022-07-30T07:48:00.857Z,23.40
2022-07-30T07:50:27.305Z,23.20
2022-07-30T07:52:53.766Z,24.20
2022-07-30T07:55:22.509Z,23.70
2022-07-30T07:57:48.966Z,24.40
2022-07-30T08:00:16.081Z,24.20
2022-07-30T08:02:42.642Z,23.50
2022-07-30T08:05:09.140Z,23.70
2022-07-30T08:07:35.630Z,24.50
2022-07-30T08:10:02.077Z,23.40
2022-07-30T08:12:28.534Z,23.70
2022-07-30T08:14:54.974Z,23.80
2022-07-30T08:17:21.499Z,24.40
2022-07-30T08:19:48.015Z,23.70
2022-07-30T08:22:14.465Z,23.90
2022-07-30T08:24:40.962Z,23.90
2022-07-30T08:27:07.416Z,23.60
2022-07-30T08:29:33.885Z,23.90
2022-07-30T08:32:00.701Z,24.00
2022-07-30T08:36:54.329Z,24.20
2022-07-30T08:39:20.793Z,24.30
2022-07-30T08:41:47.252Z,24.60
2022-07-30T08:44:13.705Z,23.70
2022-07-30T08:49:10.824Z,24.70
2022-07-30T08:51:37.927Z,24.50
2022-07-30T08:56:31.390Z,24.00
2022-07-30T08:58:57.865Z,24.50
2022-07-30T09:01:24.342Z,24.70
2022-07-30T09:03:50.793Z,23.80
2022-07-30T09:06:17.260Z,24.20
2022-07-30T09:08:43.704Z,24.50
2022-07-30T09:13:37.157Z,23.50
2022-07-30T09:16:03.628Z,24.20
2022-07-30T09:20:57.107Z,24.50
2022-07-30T09:23:23.573Z,23.90
2022-07-30T09:25:50.022Z,26.50
2022-07-30T09:28:17.094Z,23.70
2022-07-30T09:30:43.667Z,23.80
2022-07-30T09:38:06.487Z,23.90
2022-07-30T09:40:33.273Z,24.20
2022-07-30T09:42:59.734Z,24.40
2022-07-30T09:45:26.215Z,24.70
2022-07-30T09:48:01.473Z,23.80
2022-07-30T09:50:30.295Z,23.70
2022-07-30T09:52:57.341Z,24.80
2022-07-30T09:55:23.796Z,24.40
2022-07-30T09:57:51.473Z,24.10
2022-07-30T10:00:24.054Z,25.10
2022-07-30T10:02:50.749Z,24.70
2022-07-30T10:05:19.012Z,24.30
2022-07-30T10:07:46.848Z,25.00
2022-07-30T10:10:14.929Z,24.60
2022-07-30T10:15:10.620Z,24.30
2022-07-30T10:17:40.121Z,23.60
2022-07-30T10:20:08.936Z,24.80
2022-07-30T10:22:36.186Z,24.60
2022-07-30T10:25:02.695Z,24.80
2022-07-30T10:27:32.230Z,24.50
2022-07-30T10:29:58.803Z,24.90
2022-07-30T10:32:30.977Z,24.70
2022-07-30T10:34:57.679Z,24.70
2022-07-30T10:37:24.530Z,24.70
2022-07-30T10:42:19.539Z,25.20
2022-07-30T10:44:46.000Z,23.80
2022-07-30T10:47:12.454Z,23.60
2022-07-30T10:52:07.360Z,24.20
2022-07-30T10:54:33.798Z,24.40
2022-07-30T10:57:05.882Z,24.60
2022-07-30T10:59:32.364Z,24.80
2022-07-30T11:02:03.513Z,24.20
2022-07-30T11:04:30.236Z,23.40
2022-07-30T11:06:56.702Z,23.80
2022-07-30T11:09:23.145Z,24.90
2022-07-30T11:12:01.905Z,24.80
2022-07-30T11:17:00.040Z,25.00
2022-07-30T11:19:55.834Z,25.30
2022-07-30T11:22:13.590Z,24.80
2022-07-30T11:24:41.475Z,24.80
2022-07-30T11:27:11.953Z,25.30
2022-07-30T11:29:50.719Z,25.00
2022-07-30T11:32:17.549Z,23.70
2022-07-30T11:34:43.997Z,24.70
2022-07-30T11:37:18.373Z,24.80
2022-07-30T11:39:48.481Z,24.50
2022-07-30T11:42:15.861Z,24.70
2022-07-30T11:44:42.313Z,24.70
2022-07-30T11:47:08.837Z,24.40
2022-07-30T11:49:35.296Z,24.70
2022-07-30T11:52:01.924Z,25.00
2022-07-30T11:54:28.537Z,24.00
2022-07-30T11:56:54.985Z,24.60
2022-07-30T11:59:21.473Z,24.50
2022-07-30T12:01:47.913Z,24.00
2022-07-30T12:04:14.370Z,24.70
2022-07-30T12:06:40.843Z,24.70
2022-07-30T12:09:07.299Z,24.50
2022-07-30T12:11:36.835Z,25.00
2022-07-30T12:14:03.290Z,24.90
2022-07-30T12:16:29.754Z,24.70
2022-07-30T12:18:56.217Z,24.80
2022-07-30T12:21:22.680Z,24.80
2022-07-30T12:23:49.128Z,24.80
2022-07-30T12:26:15.578Z,24.70
2022-07-30T12:28:42.044Z,24.80
2022-07-30T12:31:08.487Z,24.70
2022-07-30T12:33:37.396Z,25.00
2022-07-30T12:36:05.843Z,23.60
2022-07-30T12:38:32.309Z,24.50
2022-07-30T12:40:58.810Z,24.80
2022-07-30T12:43:25.292Z,25.20
2022-07-30T12:48:20.935Z,25.00
2022-07-30T12:50:48.621Z,24.60
2022-07-30T12:53:15.069Z,24.60
2022-07-30T12:55:41.519Z,24.20
2022-07-30T13:00:35.741Z,24.80
2022-07-30T13:03:02.186Z,24.50
2022-07-30T13:05:28.625Z,24.40
2022-07-30T13:07:55.070Z,23.70
2022-07-30T13:10:21.515Z,24.60
2022-07-30T13:12:47.964Z,24.80
2022-07-30T13:15:14.412Z,24.70
2022-07-30T13:17:40.870Z,25.10
2022-07-30T13:20:07.357Z,24.50
2022-07-30T13:22:33.878Z,24.80
2022-07-30T13:25:00.336Z,24.60
2022-07-30T13:27:26.808Z,24.70
2022-07-30T13:32:20.288Z,24.90
2022-07-30T13:34:46.740Z,25.00
2022-07-30T13:37:13.194Z,24.50
2022-07-30T13:42:06.646Z,25.20
2022-07-30T13:44:33.102Z,24.70
2022-07-30T13:47:01.907Z,24.50
2022-07-30T13:51:55.718Z,24.50
2022-07-30T13:54:22.164Z,24.60
2022-07-30T13:56:48.607Z,25.00
2022-07-30T13:59:15.985Z,24.70
2022-07-30T14:01:42.494Z,24.70
2022-07-30T14:04:09.019Z,24.90
2022-07-30T14:06:35.483Z,24.80
2022-07-30T14:09:01.970Z,24.60
2022-07-30T14:11:28.434Z,24.70
2022-07-30T14:13:54.914Z,25.00
2022-07-30T14:16:43.501Z,24.60
2022-07-30T14:21:34.801Z,24.70
2022-07-30T14:24:01.273Z,24.70
2022-07-30T14:26:36.184Z,25.00
2022-07-30T14:29:03.158Z,24.90
2022-07-30T14:31:29.599Z,23.60
2022-07-30T14:33:56.074Z,23.80
2022-07-30T14:36:22.528Z,24.80
2022-07-30T14:38:49.002Z,24.00
2022-07-30T14:41:15.477Z,24.90
2022-07-30T14:43:41.934Z,24.90
2022-07-30T14:46:08.389Z,24.10
2022-07-30T14:48:34.889Z,24.50
2022-07-30T14:51:14.796Z,24.70
2022-07-30T14:53:47.336Z,24.80
2022-07-30T14:56:13.899Z,25.30
2022-07-30T14:58:40.742Z,24.00
2022-07-30T15:01:14.875Z,24.70
2022-07-30T15:03:43.225Z,24.50
2022-07-30T15:06:09.682Z,25.10
2022-07-30T15:08:36.148Z,24.90
2022-07-30T15:11:03.533Z,25.00
2022-07-30T15:13:34.623Z,25.00
2022-07-30T15:16:02.849Z,24.90
2022-07-30T15:18:29.341Z,25.10
2022-07-30T15:20:56.280Z,24.00
2022-07-30T15:23:22.791Z,24.90
2022-07-30T15:25:49.266Z,25.00
2022-07-30T15:28:15.718Z,24.80
2022-07-30T15:33:09.162Z,24.70
2022-07-30T15:35:36.431Z,24.90
2022-07-30T15:38:02.921Z,24.70
2022-07-30T15:40:29.399Z,23.60
2022-07-30T15:42:55.880Z,24.50
2022-07-30T15:45:22.327Z,24.70
2022-07-30T15:47:48.789Z,24.50
2022-07-30T15:50:15.246Z,24.90
2022-07-30T15:52:41.689Z,25.10
2022-07-30T15:55:08.145Z,24.70
2022-07-30T15:57:34.598Z,24.70
2022-07-30T16:00:01.143Z,24.70
2022-07-30T16:02:27.597Z,24.90
2022-07-30T16:04:54.074Z,24.80
2022-07-30T16:07:20.518Z,24.90
2022-07-30T16:09:46.970Z,24.70
2022-07-30T16:12:13.410Z,24.70
2022-07-30T16:17:10.490Z,24.80
2022-07-30T16:19:39.696Z,24.70
2022-07-30T16:22:06.149Z,24.50
2022-07-30T16:24:32.618Z,24.50
2022-07-30T16:26:59.070Z,24.60
2022-07-30T16:29:25.576Z,24.80
2022-07-30T16:31:52.033Z,24.60
2022-07-30T16:34:26.575Z,24.60
2022-07-30T16:36:53.467Z,24.40
2022-07-30T16:39:19.923Z,24.70
2022-07-30T16:41:46.370Z,24.60
2022-07-30T16:44:12.835Z,24.50
2022-07-30T16:46:39.304Z,24.70
2022-07-30T16:49:05.855Z,24.70
2022-07-30T16:51:32.354Z,24.70
2022-07-30T16:53:58.847Z,24.50
2022-07-30T16:56:25.294Z,24.80
2022-07-30T16:58:51.767Z,24.70
2022-07-30T17:01:18.337Z,24.70
2022-07-30T17:03:44.899Z,24.80
2022-07-30T17:06:11.378Z,24.60
2022-07-30T17:08:37.830Z,24.30
2022-07-30T17:11:08.726Z,24.80
2022-07-30T17:13:36.322Z,24.30
2022-07-30T17:16:02.792Z,24.60
2022-07-30T17:18:29.236Z,24.80
2022-07-30T17:20:55.672Z,24.10
2022-07-30T17:25:49.110Z,24.80
2022-07-30T17:28:15.552Z,24.90
2022-07-30T17:30:42.005Z,24.30
2022-07-30T17:33:08.458Z,23.40
2022-07-30T17:38:01.929Z,24.90
2022-07-30T17:40:31.598Z,24.80
2022-07-30T17:42:58.375Z,24.70
2022-07-30T17:45:24.826Z,24.50
2022-07-30T17:47:51.271Z,24.60
2022-07-30T17:52:44.721Z,24.70
2022-07-30T17:55:11.295Z,24.60
2022-07-30T17:57:37.782Z,24.70
2022-07-30T18:00:04.242Z,24.90
2022-07-30T18:02:30.690Z,24.80
2022-07-30T18:04:57.145Z,24.80
2022-07-30T18:07:23.590Z,24.50
2022-07-30T18:12:17.023Z,24.70
2022-07-30T18:14:43.478Z,24.70
2022-07-30T18:19:41.006Z,24.90
2022-07-30T18:22:07.545Z,24.70
2022-07-30T18:24:34.006Z,24.00
2022-07-30T18:27:07.080Z,24.70
2022-07-30T18:29:33.555Z,24.60
2022-07-30T18:32:00.321Z,24.20
2022-07-30T18:36:54.033Z,24.80
2022-07-30T18:39:20.474Z,24.80
2022-07-30T18:41:46.917Z,23.80
2022-07-30T18:44:13.381Z,23.80
2022-07-30T18:49:21.212Z,24.50
2022-07-30T18:51:53.266Z,24.20
2022-07-30T18:54:19.736Z,24.80
2022-07-30T18:56:46.197Z,24.60
2022-07-30T18:59:12.666Z,24.60
2022-07-30T19:01:39.266Z,24.50
2022-07-30T19:04:05.835Z,24.20
2022-07-30T19:06:32.306Z,23.70
2022-07-30T19:08:58.744Z,24.80
2022-07-30T19:11:25.230Z,24.90
2022-07-30T19:13:51.682Z,25.00
2022-07-30T19:16:18.149Z,24.00
2022-07-30T19:18:44.598Z,24.70
2022-07-30T19:21:14.065Z,24.90
2022-07-30T19:23:40.775Z,24.50
2022-07-30T19:28:34.218Z,24.30
2022-07-30T19:31:00.652Z,24.80
2022-07-30T19:33:27.119Z,24.50
2022-07-30T19:35:53.564Z,24.30
2022-07-30T19:38:21.788Z,24.70
2022-07-30T19:40:50.293Z,24.60
2022-07-30T19:43:16.795Z,24.70
2022-07-30T19:45:47.326Z,24.30
2022-07-30T19:48:14.659Z,23.80
2022-07-30T19:50:41.136Z,24.70
2022-07-30T19:53:07.612Z,24.60
2022-07-30T20:00:29.408Z,24.90
2022-07-30T20:02:56.077Z,25.00
2022-07-30T20:07:51.650Z,24.50
2022-07-30T20:10:18.501Z,24.60
2022-07-30T20:12:49.684Z,24.90
2022-07-30T20:17:43.820Z,24.40
2022-07-30T20:20:12.892Z,24.90
2022-07-30T20:22:39.517Z,24.90
2022-07-30T20:25:06.442Z,24.80
2022-07-30T20:27:36.275Z,24.80
2022-07-30T20:30:05.052Z,24.90
2022-07-30T20:32:31.523Z,25.10
2022-07-30T20:34:58.314Z,24.60
2022-07-30T20:37:24.885Z,24.60
2022-07-30T20:39:54.137Z,24.70
2022-07-30T20:42:21.893Z,25.00
2022-07-30T20:44:50.685Z,24.90
2022-07-30T20:47:17.402Z,24.80
2022-07-30T20:50:00.962Z,24.70
2022-07-30T20:52:28.178Z,24.40
2022-07-30T20:54:55.965Z,24.60
2022-07-30T20:57:57.100Z,24.30
2022-07-30T21:00:08.863Z,24.60
2022-07-30T21:02:35.352Z,24.80
2022-07-30T21:05:04.460Z,24.90
2022-07-30T21:07:36.759Z,24.80
2022-07-30T21:10:03.829Z,24.70
2022-07-30T21:12:32.420Z,24.70
2022-07-30T21:14:59.699Z,25.00
2022-07-30T21:17:26.328Z,24.50
2022-07-30T21:19:54.712Z,24.90
2022-07-30T21:22:22.005Z,24.90
2022-07-30T21:24:50.389Z,24.80
2022-07-30T21:27:16.862Z,24.60
2022-07-30T21:29:45.574Z,24.80
2022-07-30T21:32:12.207Z,25.00
2022-07-30T21:34:42.016Z,24.40
2022-07-30T21:37:08.929Z,25.00
2022-07-30T21:39:39.849Z,24.50
2022-07-30T21:42:06.796Z,24.40
2022-07-30T21:44:33.250Z,24.80
2022-07-30T21:47:00.066Z,24.40
2022-07-30T21:49:27.787Z,24.50
2022-07-30T21:51:58.145Z,24.70
2022-07-30T21:54:29.144Z,24.50
2022-07-30T21:56:58.565Z,23.70
2022-07-30T21:59:25.142Z,24.90
2022-07-30T22:01:55.191Z,24.50
2022-07-30T22:04:21.761Z,24.40
2022-07-30T22:06:48.231Z,24.50
2022-07-30T22:09:19.509Z,24.40
2022-07-30T22:12:01.444Z,24.40
2022-07-30T22:14:28.301Z,24.50
2022-07-30T22:16:54.751Z,24.50
2022-07-30T22:19:21.199Z,25.00
2022-07-30T22:21:47.692Z,23.80
2022-07-30T22:24:29.596Z,24.90
2022-07-30T22:26:57.796Z,25.10
2022-07-30T22:31:53.626Z,23.90
2022-07-30T22:34:20.077Z,23.80
2022-07-30T22:36:48.555Z,24.90
2022-07-30T22:39:15.609Z,24.90
2022-07-30T22:41:42.087Z,24.70
2022-07-30T22:44:10.240Z,24.50
2022-07-30T22:46:39.443Z,24.50
2022-07-30T22:49:23.789Z,23.90
2022-07-30T22:52:06.883Z,24.00
2022-07-30T22:54:38.911Z,24.60
2022-07-30T22:57:05.370Z,23.60
2022-07-30T23:00:00.197Z,24.60
2022-07-30T23:02:18.258Z,24.30
2022-07-30T23:04:47.075Z,24.90
2022-07-30T23:07:19.101Z,24.40
2022-07-30T23:09:51.602Z,24.70
2022-07-30T23:12:20.245Z,24.80
2022-07-30T23:14:46.966Z,24.90
2022-07-30T23:17:13.433Z,24.30
2022-07-30T23:19:39.878Z,24.70
2022-07-30T23:22:06.324Z,24.50
2022-07-30T23:24:32.782Z,24.60
2022-07-30T23:26:59.380Z,24.40
2022-07-30T23:29:25.974Z,24.40
2022-07-30T23:31:52.486Z,24.60
2022-07-30T23:34:18.973Z,24.50
2022-07-30T23:36:45.417Z,24.40
2022-07-30T23:39:11.871Z,24.50
2022-07-30T23:41:38.327Z,24.50
2022-07-30T23:44:04.772Z,23.50
2022-07-30T23:46:31.234Z,24.70
2022-07-30T23:48:57.709Z,23.90
2022-07-30T23:51:24.210Z,24.00
2022-07-30T23:53:50.675Z,24.70
2022-07-30T23:56:19.742Z,23.70
2022-07-30T23:58:46.241Z,24.40
